CheckWX is a tool to help pilots better visualize weather data.  It is not intended as a substitute for an official pre-flight weather briefing.

07:09:26 UTC

1M4 METAR
Posey Field Airport
Haleyville, Alabama, USA
Current

13 mins ago

K1M4 230656Z AUTO 00000KT 10SM CLR 17/15 A3012 RMK AO2 SLP584 T01670150
Observed
Sep-23 @ 06:56 UTC
Visibility
10 SM
Flight Rules
VFR
Cloud Levels
  • Clear skies
Temperature
17°C / 63°F
Dewpoint
15°C / 59°F
Humidity
88%
Altimeter
30.12" Hg
Pressure
1020.02 hPa
Previous

1 hour ago

K1M4 230556Z AUTO 00000KT 10SM CLR 17/14 A3012 RMK AO2 SLP584 T01670144 10250 20167 58008
Observed
Sep-23 @ 05:56 UTC
Visibility
10 SM
Flight Rules
VFR
Cloud Levels
  • Clear skies
Temperature
17°C / 63°F
Dewpoint
14°C / 57°F
Humidity
83%
Altimeter
30.12" Hg
Pressure
1020.02 hPa
Previous

2 hours ago

K1M4 230456Z AUTO 00000KT 10SM CLR 17/15 A3013 RMK AO2 SLP593 T01720150 403110144
Observed
Sep-23 @ 04:56 UTC
Visibility
10 SM
Flight Rules
VFR
Cloud Levels
  • Clear skies
Temperature
17°C / 63°F
Dewpoint
15°C / 59°F
Humidity
88%
Altimeter
30.13" Hg
Pressure
1020.32 hPa